sensor_id;sensor_type;location;lat;lon;timestamp;noise_LAeq;noise_LA_min;noise_LA_max;noise_LA01;noise_LA95
74470;Laerm;62918;55.706;37.816;2023-07-28T00:00:22;59.34;49.07;70.48;;
74470;Laerm;62918;55.706;37.816;2023-07-28T00:00:52;68.33;56.06;74.10;;
74470;Laerm;62918;55.706;37.816;2023-07-28T00:01:23;61.41;54.10;69.99;;
74470;Laerm;62918;55.706;37.816;2023-07-28T00:01:53;58.01;50.79;67.46;;
74470;Laerm;62918;55.706;37.816;2023-07-28T00:02:24;57.74;48.53;68.95;;
74470;Laerm;62918;55.706;37.816;2023-07-28T00:02:54;58.58;50.29;65.70;;
74470;Laerm;62918;55.706;37.816;2023-07-28T00:03:25;56.34;50.09;65.81;;
74470;Laerm;62918;55.706;37.816;2023-07-28T00:03:55;62.30;50.12;66.84;;
74470;Laerm;62918;55.706;37.816;2023-07-28T00:04:28;58.39;52.25;63.48;;
74470;Laerm;62918;55.706;37.816;2023-07-28T00:04:58;52.49;47.73;59.74;;
74470;Laerm;62918;55.706;37.816;2023-07-28T00:05:29;56.88;48.48;64.74;;
74470;Laerm;62918;55.706;37.816;2023-07-28T00:05:59;53.35;48.97;57.11;;
74470;Laerm;62918;55.706;37.816;2023-07-28T00:06:30;54.52;48.74;61.38;;
74470;Laerm;62918;55.706;37.816;2023-07-28T00:07:01;53.23;48.38;61.55;;
74470;Laerm;62918;55.706;37.816;2023-07-28T00:07:31;60.37;48.08;73.53;;
74470;Laerm;62918;55.706;37.816;2023-07-28T00:08:04;53.07;49.24;60.62;;
74470;Laerm;62918;55.706;37.816;2023-07-28T00:08:34;51.15;46.95;56.71;;
74470;Laerm;62918;55.706;37.816;2023-07-28T00:09:05;53.95;48.46;60.25;;
74470;Laerm;62918;55.706;37.816;2023-07-28T00:09:36;56.59;51.14;63.64;;
74470;Laerm;62918;55.706;37.816;2023-07-28T00:10:06;51.14;47.16;56.64;;
74470;Laerm;62918;55.706;37.816;2023-07-28T00:10:41;52.38;48.06;56.66;;
74470;Laerm;62918;55.706;37.816;2023-07-28T00:11:13;55.67;46.94;64.79;;
74470;Laerm;62918;55.706;37.816;2023-07-28T00:11:44;65.81;51.90;72.59;;
74470;Laerm;62918;55.706;37.816;2023-07-28T00:12:15;55.43;46.48;65.38;;
74470;Laerm;62918;55.706;37.816;2023-07-28T00:12:45;49.35;46.17;57.01;;
74470;Laerm;62918;55.706;37.816;2023-07-28T00:13:16;49.48;46.14;61.16;;
74470;Laerm;62918;55.706;37.816;2023-07-28T00:13:46;54.77;46.78;61.84;;
74470;Laerm;62918;55.706;37.816;2023-07-28T00:14:17;56.11;49.21;61.24;;
74470;Laerm;62918;55.706;37.816;2023-07-28T00:14:47;52.92;47.98;56.86;;
74470;Laerm;62918;55.706;37.816;2023-07-28T00:15:18;49.94;45.73;57.82;;
74470;Laerm;62918;55.706;37.816;2023-07-28T00:15:48;57.85;48.10;63.65;;
74470;Laerm;62918;55.706;37.816;2023-07-28T00:16:19;57.08;47.35;69.19;;
74470;Laerm;62918;55.706;37.816;2023-07-28T00:16:55;56.93;48.57;62.47;;
74470;Laerm;62918;55.706;37.816;2023-07-28T00:17:25;51.61;47.90;56.76;;
74470;Laerm;62918;55.706;37.816;2023-07-28T00:17:56;55.91;51.04;60.61;;
74470;Laerm;62918;55.706;37.816;2023-07-28T00:18:27;54.49;47.28;61.04;;
74470;Laerm;62918;55.706;37.816;2023-07-28T00:18:57;50.21;47.09;53.67;;
74470;Laerm;62918;55.706;37.816;2023-07-28T00:19:28;57.46;46.66;65.45;;
74470;Laerm;62918;55.706;37.816;2023-07-28T00:19:58;53.89;47.83;61.33;;
74470;Laerm;62918;55.706;37.816;2023-07-28T00:20:29;55.58;46.60;62.53;;
74470;Laerm;62918;55.706;37.816;2023-07-28T00:20:59;55.09;49.65;65.06;;
74470;Laerm;62918;55.706;37.816;2023-07-28T00:21:30;58.59;46.66;68.53;;
74470;Laerm;62918;55.706;37.816;2023-07-28T00:22:01;55.43;47.33;62.64;;
74470;Laerm;62918;55.706;37.816;2023-07-28T00:22:31;56.86;49.51;62.34;;
74470;Laerm;62918;55.706;37.816;2023-07-28T00:23:02;53.43;49.64;58.24;;
74470;Laerm;62918;55.706;37.816;2023-07-28T00:23:32;57.40;50.61;62.10;;
74470;Laerm;62918;55.706;37.816;2023-07-28T00:24:03;60.44;51.14;65.13;;
74470;Laerm;62918;55.706;37.816;2023-07-28T00:24:34;52.26;47.06;58.51;;
74470;Laerm;62918;55.706;37.816;2023-07-28T00:25:04;49.09;46.77;51.82;;
74470;Laerm;62918;55.706;37.816;2023-07-28T00:25:35;53.51;45.95;60.84;;
74470;Laerm;62918;55.706;37.816;2023-07-28T00:26:06;52.73;45.17;62.00;;
74470;Laerm;62918;55.706;37.816;2023-07-28T00:26:37;52.19;46.07;59.44;;
74470;Laerm;62918;55.706;37.816;2023-07-28T00:27:07;55.32;48.87;60.67;;
74470;Laerm;62918;55.706;37.816;2023-07-28T00:27:38;57.51;47.23;65.66;;
74470;Laerm;62918;55.706;37.816;2023-07-28T00:28:09;53.36;47.84;59.77;;
74470;Laerm;62918;55.706;37.816;2023-07-28T00:28:39;54.98;48.50;60.55;;
74470;Laerm;62918;55.706;37.816;2023-07-28T00:29:10;52.20;46.99;57.98;;
74470;Laerm;62918;55.706;37.816;2023-07-28T00:29:41;52.71;47.23;62.19;;
74470;Laerm;62918;55.706;37.816;2023-07-28T00:30:12;59.77;53.36;65.98;;
74470;Laerm;62918;55.706;37.816;2023-07-28T00:30:43;51.23;46.68;59.77;;
74470;Laerm;62918;55.706;37.816;2023-07-28T00:31:13;53.12;46.81;61.99;;
74470;Laerm;62918;55.706;37.816;2023-07-28T00:31:44;55.40;47.23;64.62;;
74470;Laerm;62918;55.706;37.816;2023-07-28T00:32:14;61.23;47.98;70.15;;
74470;Laerm;62918;55.706;37.816;2023-07-28T00:32:45;54.96;46.77;65.83;;
74470;Laerm;62918;55.706;37.816;2023-07-28T00:33:16;53.87;46.73;60.87;;
74470;Laerm;62918;55.706;37.816;2023-07-28T00:33:47;53.29;48.66;59.16;;
74470;Laerm;62918;55.706;37.816;2023-07-28T00:34:18;58.10;48.76;63.91;;
74470;Laerm;62918;55.706;37.816;2023-07-28T00:34:48;53.86;47.26;60.97;;
74470;Laerm;62918;55.706;37.816;2023-07-28T00:35:19;67.73;47.87;76.70;;
74470;Laerm;62918;55.706;37.816;2023-07-28T00:35:49;65.69;48.04;77.47;;
74470;Laerm;62918;55.706;37.816;2023-07-28T00:36:20;57.16;49.25;65.25;;
74470;Laerm;62918;55.706;37.816;2023-07-28T00:36:50;51.15;45.12;58.33;;
74470;Laerm;62918;55.706;37.816;2023-07-28T00:37:21;48.14;44.74;55.76;;
74470;Laerm;62918;55.706;37.816;2023-07-28T00:37:52;50.69;46.41;57.88;;
74470;Laerm;62918;55.706;37.816;2023-07-28T00:38:22;51.33;44.32;58.19;;
74470;Laerm;62918;55.706;37.816;2023-07-28T00:38:53;47.01;43.42;55.50;;
74470;Laerm;62918;55.706;37.816;2023-07-28T00:39:24;51.32;43.80;61.78;;
74470;Laerm;62918;55.706;37.816;2023-07-28T00:39:54;46.61;44.32;49.37;;
74470;Laerm;62918;55.706;37.816;2023-07-28T00:40:25;60.99;44.97;68.77;;
74470;Laerm;62918;55.706;37.816;2023-07-28T00:40:55;53.36;47.91;61.25;;
74470;Laerm;62918;55.706;37.816;2023-07-28T00:41:26;54.08;47.30;60.10;;
74470;Laerm;62918;55.706;37.816;2023-07-28T00:41:56;58.14;46.55;73.02;;
74470;Laerm;62918;55.706;37.816;2023-07-28T00:42:27;54.15;47.48;60.44;;
74470;Laerm;62918;55.706;37.816;2023-07-28T00:42:58;54.89;49.72;60.56;;
74470;Laerm;62918;55.706;37.816;2023-07-28T00:43:28;55.16;46.13;62.09;;
74470;Laerm;62918;55.706;37.816;2023-07-28T00:43:59;54.58;46.92;61.00;;
74470;Laerm;62918;55.706;37.816;2023-07-28T00:44:29;52.73;44.66;64.28;;
74470;Laerm;62918;55.706;37.816;2023-07-28T00:45:00;53.26;47.54;59.99;;
74470;Laerm;62918;55.706;37.816;2023-07-28T00:45:31;47.93;44.10;55.13;;
74470;Laerm;62918;55.706;37.816;2023-07-28T00:46:03;48.98;44.63;52.99;;
74470;Laerm;62918;55.706;37.816;2023-07-28T00:46:33;51.05;45.25;58.67;;
74470;Laerm;62918;55.706;37.816;2023-07-28T00:47:04;57.23;45.60;66.13;;
74470;Laerm;62918;55.706;37.816;2023-07-28T00:47:35;59.90;50.63;66.20;;
74470;Laerm;62918;55.706;37.816;2023-07-28T00:48:13;54.79;47.14;63.21;;
74470;Laerm;62918;55.706;37.816;2023-07-28T00:48:44;46.97;42.66;62.79;;
74470;Laerm;62918;55.706;37.816;2023-07-28T00:49:15;48.04;43.74;67.13;;
74470;Laerm;62918;55.706;37.816;2023-07-28T00:49:46;54.84;45.98;62.65;;
74470;Laerm;62918;55.706;37.816;2023-07-28T00:50:16;51.66;44.43;59.73;;
74470;Laerm;62918;55.706;37.816;2023-07-28T00:50:48;46.68;44.01;54.05;;
74470;Laerm;62918;55.706;37.816;2023-07-28T00:51:19;61.49;45.42;69.83;;
74470;Laerm;62918;55.706;37.816;2023-07-28T00:51:50;49.14;43.77;58.45;;
74470;Laerm;62918;55.706;37.816;2023-07-28T00:52:22;51.40;44.35;57.00;;
74470;Laerm;62918;55.706;37.816;2023-07-28T00:52:52;61.69;48.37;72.02;;
74470;Laerm;62918;55.706;37.816;2023-07-28T00:53:23;50.09;44.23;57.25;;
74470;Laerm;62918;55.706;37.816;2023-07-28T00:53:55;46.52;42.60;51.50;;
74470;Laerm;62918;55.706;37.816;2023-07-28T00:54:26;48.71;42.71;56.14;;
74470;Laerm;62918;55.706;37.816;2023-07-28T00:54:56;45.75;43.01;51.61;;
74470;Laerm;62918;55.706;37.816;2023-07-28T00:55:27;56.53;42.93;64.87;;
74470;Laerm;62918;55.706;37.816;2023-07-28T00:55:58;54.89;43.36;62.88;;
74470;Laerm;62918;55.706;37.816;2023-07-28T00:56:29;48.58;43.23;55.83;;
74470;Laerm;62918;55.706;37.816;2023-07-28T00:57:00;50.53;43.03;58.81;;
74470;Laerm;62918;55.706;37.816;2023-07-28T00:57:30;48.17;43.58;52.85;;
74470;Laerm;62918;55.706;37.816;2023-07-28T00:58:01;54.34;44.81;62.07;;
74470;Laerm;62918;55.706;37.816;2023-07-28T00:58:32;47.69;42.76;53.83;;
74470;Laerm;62918;55.706;37.816;2023-07-28T00:59:03;51.30;45.81;57.23;;
74470;Laerm;62918;55.706;37.816;2023-07-28T00:59:33;52.32;45.08;58.71;;
74470;Laerm;62918;55.706;37.816;2023-07-28T01:00:05;48.27;43.52;54.55;;
74470;Laerm;62918;55.706;37.816;2023-07-28T01:00:36;55.44;46.17;62.67;;
74470;Laerm;62918;55.706;37.816;2023-07-28T01:01:06;48.77;44.10;69.62;;
74470;Laerm;62918;55.706;37.816;2023-07-28T01:01:37;49.12;43.94;54.02;;
74470;Laerm;62918;55.706;37.816;2023-07-28T01:02:08;47.18;43.34;50.17;;
74470;Laerm;62918;55.706;37.816;2023-07-28T01:02:38;48.51;43.66;53.39;;
74470;Laerm;62918;55.706;37.816;2023-07-28T01:03:09;46.01;43.69;48.35;;
74470;Laerm;62918;55.706;37.816;2023-07-28T01:03:40;45.17;42.88;48.93;;
74470;Laerm;62918;55.706;37.816;2023-07-28T01:04:11;44.99;42.30;56.51;;
74470;Laerm;62918;55.706;37.816;2023-07-28T01:04:41;45.00;42.04;49.91;;
74470;Laerm;62918;55.706;37.816;2023-07-28T01:05:12;45.18;41.20;48.63;;
74470;Laerm;62918;55.706;37.816;2023-07-28T01:05:53;46.04;42.92;58.18;;
74470;Laerm;62918;55.706;37.816;2023-07-28T01:08:27;46.61;42.83;58.94;;
74470;Laerm;62918;55.706;37.816;2023-07-28T01:09:07;50.61;44.03;60.35;;
74470;Laerm;62918;55.706;37.816;2023-07-28T01:09:45;54.38;44.42;61.76;;
74470;Laerm;62918;55.706;37.816;2023-07-28T01:10:22;55.14;45.35;63.77;;
74470;Laerm;62918;55.706;37.816;2023-07-28T01:10:54;53.74;45.63;62.01;;
74470;Laerm;62918;55.706;37.816;2023-07-28T01:11:25;57.87;46.11;67.25;;
74470;Laerm;62918;55.706;37.816;2023-07-28T01:11:57;55.85;49.92;65.60;;
74470;Laerm;62918;55.706;37.816;2023-07-28T01:12:28;54.65;46.91;60.20;;
74470;Laerm;62918;55.706;37.816;2023-07-28T01:12:59;60.12;53.41;65.76;;
74470;Laerm;62918;55.706;37.816;2023-07-28T01:13:30;50.98;43.20;59.63;;
74470;Laerm;62918;55.706;37.816;2023-07-28T01:14:00;52.63;45.31;59.84;;
74470;Laerm;62918;55.706;37.816;2023-07-28T01:14:31;56.27;45.03;63.73;;
74470;Laerm;62918;55.706;37.816;2023-07-28T01:15:01;55.31;44.79;61.57;;
74470;Laerm;62918;55.706;37.816;2023-07-28T01:15:35;49.64;45.29;57.92;;
74470;Laerm;62918;55.706;37.816;2023-07-28T01:16:07;58.10;49.31;70.98;;
74470;Laerm;62918;55.706;37.816;2023-07-28T01:16:38;55.30;43.80;62.01;;
74470;Laerm;62918;55.706;37.816;2023-07-28T01:17:09;60.42;43.17;68.70;;
74470;Laerm;62918;55.706;37.816;2023-07-28T01:17:39;52.18;42.61;64.34;;
74470;Laerm;62918;55.706;37.816;2023-07-28T01:18:10;47.95;41.76;53.38;;
74470;Laerm;62918;55.706;37.816;2023-07-28T01:18:41;44.45;41.75;48.93;;
74470;Laerm;62918;55.706;37.816;2023-07-28T01:19:12;58.40;42.73;66.34;;
74470;Laerm;62918;55.706;37.816;2023-07-28T01:19:42;54.76;44.15;61.65;;
74470;Laerm;62918;55.706;37.816;2023-07-28T01:20:13;52.76;44.44;62.14;;
74470;Laerm;62918;55.706;37.816;2023-07-28T01:20:44;57.13;49.59;63.01;;
74470;Laerm;62918;55.706;37.816;2023-07-28T01:21:22;54.98;43.85;61.97;;
74470;Laerm;62918;55.706;37.816;2023-07-28T01:22:28;46.14;42.60;55.36;;
74470;Laerm;62918;55.706;37.816;2023-07-28T01:23:20;49.32;42.45;56.59;;
74470;Laerm;62918;55.706;37.816;2023-07-28T01:24:23;58.94;48.56;64.33;;
74470;Laerm;62918;55.706;37.816;2023-07-28T01:25:06;49.81;44.15;58.42;;
74470;Laerm;62918;55.706;37.816;2023-07-28T01:26:14;55.64;44.81;65.04;;
74470;Laerm;62918;55.706;37.816;2023-07-28T01:26:46;50.47;45.25;57.96;;
74470;Laerm;62918;55.706;37.816;2023-07-28T01:27:18;53.20;47.64;58.96;;
74470;Laerm;62918;55.706;37.816;2023-07-28T01:27:49;58.37;50.63;63.50;;
74470;Laerm;62918;55.706;37.816;2023-07-28T01:28:22;58.44;47.20;63.57;;
74470;Laerm;62918;55.706;37.816;2023-07-28T01:28:53;54.57;44.65;64.64;;
74470;Laerm;62918;55.706;37.816;2023-07-28T01:29:24;51.09;43.80;60.36;;
74470;Laerm;62918;55.706;37.816;2023-07-28T01:29:55;52.10;44.25;64.84;;
74470;Laerm;62918;55.706;37.816;2023-07-28T01:30:27;52.95;47.59;61.59;;
74470;Laerm;62918;55.706;37.816;2023-07-28T01:31:01;45.73;42.52;54.07;;
74470;Laerm;62918;55.706;37.816;2023-07-28T01:31:32;45.83;42.77;50.83;;
74470;Laerm;62918;55.706;37.816;2023-07-28T01:32:03;50.00;44.02;56.18;;
74470;Laerm;62918;55.706;37.816;2023-07-28T01:32:35;46.59;43.88;51.41;;
74470;Laerm;62918;55.706;37.816;2023-07-28T01:33:07;55.80;45.10;67.44;;
74470;Laerm;62918;55.706;37.816;2023-07-28T01:33:38;51.63;44.86;58.38;;
74470;Laerm;62918;55.706;37.816;2023-07-28T01:34:08;53.09;46.54;59.60;;
74470;Laerm;62918;55.706;37.816;2023-07-28T01:34:39;59.83;45.13;69.13;;
74470;Laerm;62918;55.706;37.816;2023-07-28T01:35:09;48.29;44.32;55.46;;
74470;Laerm;62918;55.706;37.816;2023-07-28T01:35:40;52.01;46.01;56.76;;
74470;Laerm;62918;55.706;37.816;2023-07-28T01:36:10;51.74;45.44;56.74;;
74470;Laerm;62918;55.706;37.816;2023-07-28T01:36:41;58.35;45.82;63.12;;
74470;Laerm;62918;55.706;37.816;2023-07-28T01:37:12;47.42;44.71;51.10;;
74470;Laerm;62918;55.706;37.816;2023-07-28T01:37:42;54.98;46.59;61.92;;
74470;Laerm;62918;55.706;37.816;2023-07-28T01:38:13;55.45;45.88;63.26;;
74470;Laerm;62918;55.706;37.816;2023-07-28T01:38:43;56.47;45.19;63.19;;
74470;Laerm;62918;55.706;37.816;2023-07-28T01:39:14;52.18;46.78;59.37;;
74470;Laerm;62918;55.706;37.816;2023-07-28T01:39:44;58.61;47.05;68.33;;
74470;Laerm;62918;55.706;37.816;2023-07-28T01:40:15;52.24;44.40;58.92;;
74470;Laerm;62918;55.706;37.816;2023-07-28T01:40:45;58.01;46.77;66.18;;
74470;Laerm;62918;55.706;37.816;2023-07-28T01:41:16;57.48;44.45;66.35;;
74470;Laerm;62918;55.706;37.816;2023-07-28T01:41:47;61.40;46.50;67.25;;
74470;Laerm;62918;55.706;37.816;2023-07-28T01:42:17;55.74;48.61;64.05;;
74470;Laerm;62918;55.706;37.816;2023-07-28T01:42:48;56.62;48.80;60.82;;
74470;Laerm;62918;55.706;37.816;2023-07-28T01:43:18;52.37;48.37;58.54;;
74470;Laerm;62918;55.706;37.816;2023-07-28T01:43:49;56.26;50.67;60.77;;
74470;Laerm;62918;55.706;37.816;2023-07-28T01:44:19;57.59;51.91;63.38;;
74470;Laerm;62918;55.706;37.816;2023-07-28T01:44:50;55.61;48.50;62.21;;
74470;Laerm;62918;55.706;37.816;2023-07-28T01:45:21;57.25;51.14;65.03;;
74470;Laerm;62918;55.706;37.816;2023-07-28T01:45:51;57.86;47.22;66.23;;
74470;Laerm;62918;55.706;37.816;2023-07-28T01:46:22;62.13;48.55;72.92;;
74470;Laerm;62918;55.706;37.816;2023-07-28T01:46:53;57.04;48.79;65.54;;
74470;Laerm;62918;55.706;37.816;2023-07-28T01:47:23;54.91;47.36;63.22;;
74470;Laerm;62918;55.706;37.816;2023-07-28T01:47:55;53.54;48.92;58.59;;
74470;Laerm;62918;55.706;37.816;2023-07-28T01:48:26;51.52;47.36;55.67;;
74470;Laerm;62918;55.706;37.816;2023-07-28T01:48:57;62.56;49.33;68.95;;
74470;Laerm;62918;55.706;37.816;2023-07-28T01:49:27;57.96;49.19;64.19;;
74470;Laerm;62918;55.706;37.816;2023-07-28T01:49:58;52.25;45.62;60.98;;
74470;Laerm;62918;55.706;37.816;2023-07-28T01:50:28;60.02;47.50;68.52;;
74470;Laerm;62918;55.706;37.816;2023-07-28T01:50:59;52.54;48.79;58.69;;
74470;Laerm;62918;55.706;37.816;2023-07-28T01:51:29;59.10;47.80;64.68;;
74470;Laerm;62918;55.706;37.816;2023-07-28T01:52:00;49.89;45.92;54.24;;
74470;Laerm;62918;55.706;37.816;2023-07-28T01:52:30;52.67;44.92;56.76;;
74470;Laerm;62918;55.706;37.816;2023-07-28T01:53:01;58.18;50.14;66.60;;
74470;Laerm;62918;55.706;37.816;2023-07-28T01:53:32;53.42;47.60;58.05;;
74470;Laerm;62918;55.706;37.816;2023-07-28T01:54:02;56.23;46.71;64.02;;
74470;Laerm;62918;55.706;37.816;2023-07-28T01:54:33;52.79;46.50;60.42;;
74470;Laerm;62918;55.706;37.816;2023-07-28T01:55:03;49.21;45.97;55.35;;
74470;Laerm;62918;55.706;37.816;2023-07-28T01:55:34;53.01;46.65;59.32;;
74470;Laerm;62918;55.706;37.816;2023-07-28T01:56:05;57.19;53.39;65.22;;
74470;Laerm;62918;55.706;37.816;2023-07-28T01:56:35;55.01;48.69;61.65;;
74470;Laerm;62918;55.706;37.816;2023-07-28T01:57:06;53.37;47.19;61.21;;
74470;Laerm;62918;55.706;37.816;2023-07-28T01:57:39;57.77;52.71;62.36;;
74470;Laerm;62918;55.706;37.816;2023-07-28T01:58:10;59.77;51.40;67.51;;
74470;Laerm;62918;55.706;37.816;2023-07-28T01:58:41;58.32;48.59;68.15;;
74470;Laerm;62918;55.706;37.816;2023-07-28T01:59:11;51.89;47.65;56.60;;
74470;Laerm;62918;55.706;37.816;2023-07-28T01:59:43;49.68;47.09;53.52;;
74470;Laerm;62918;55.706;37.816;2023-07-28T02:00:14;57.16;49.68;63.68;;
74470;Laerm;62918;55.706;37.816;2023-07-28T02:00:45;54.18;48.48;60.54;;
74470;Laerm;62918;55.706;37.816;2023-07-28T02:01:16;52.46;48.98;57.60;;
74470;Laerm;62918;55.706;37.816;2023-07-28T02:01:47;51.69;48.37;55.69;;
74470;Laerm;62918;55.706;37.816;2023-07-28T02:02:17;52.96;48.28;58.22;;
74470;Laerm;62918;55.706;37.816;2023-07-28T02:02:48;61.23;49.21;68.16;;
74470;Laerm;62918;55.706;37.816;2023-07-28T02:03:19;52.40;47.77;56.04;;
74470;Laerm;62918;55.706;37.816;2023-07-28T02:03:50;52.40;48.14;67.91;;
74470;Laerm;62918;55.706;37.816;2023-07-28T02:04:20;57.30;50.60;64.43;;
74470;Laerm;62918;55.706;37.816;2023-07-28T02:04:51;58.09;49.35;66.64;;
74470;Laerm;62918;55.706;37.816;2023-07-28T02:05:21;60.62;50.65;66.54;;
74470;Laerm;62918;55.706;37.816;2023-07-28T02:05:52;59.41;54.02;68.92;;
74470;Laerm;62918;55.706;37.816;2023-07-28T02:06:23;55.68;51.30;61.57;;
74470;Laerm;62918;55.706;37.816;2023-07-28T02:06:53;56.15;49.36;64.00;;
74470;Laerm;62918;55.706;37.816;2023-07-28T02:07:24;55.75;51.23;67.28;;
74470;Laerm;62918;55.706;37.816;2023-07-28T02:07:55;59.00;51.62;74.60;;
74470;Laerm;62918;55.706;37.816;2023-07-28T02:08:26;56.43;50.77;61.52;;
74470;Laerm;62918;55.706;37.816;2023-07-28T02:08:56;55.09;48.87;60.82;;
74470;Laerm;62918;55.706;37.816;2023-07-28T02:09:27;55.73;47.84;62.66;;
74470;Laerm;62918;55.706;37.816;2023-07-28T02:09:57;54.80;46.94;70.12;;
74470;Laerm;62918;55.706;37.816;2023-07-28T02:10:28;59.09;52.13;65.98;;
74470;Laerm;62918;55.706;37.816;2023-07-28T02:10:59;58.34;54.45;63.53;;
74470;Laerm;62918;55.706;37.816;2023-07-28T02:11:30;58.76;51.12;64.52;;
74470;Laerm;62918;55.706;37.816;2023-07-28T02:12:00;53.70;50.31;57.90;;
74470;Laerm;62918;55.706;37.816;2023-07-28T02:12:31;54.76;51.15;62.03;;
74470;Laerm;62918;55.706;37.816;2023-07-28T02:13:01;58.45;49.83;66.83;;
74470;Laerm;62918;55.706;37.816;2023-07-28T02:13:32;57.42;50.91;64.40;;
74470;Laerm;62918;55.706;37.816;2023-07-28T02:14:03;61.28;53.99;68.23;;
74470;Laerm;62918;55.706;37.816;2023-07-28T02:14:33;53.22;49.70;57.11;;
74470;Laerm;62918;55.706;37.816;2023-07-28T02:15:05;53.36;50.05;57.22;;
74470;Laerm;62918;55.706;37.816;2023-07-28T02:15:36;56.09;52.20;59.14;;
74470;Laerm;62918;55.706;37.816;2023-07-28T02:16:07;55.37;50.65;60.40;;
74470;Laerm;62918;55.706;37.816;2023-07-28T02:16:38;54.97;49.16;60.27;;
74470;Laerm;62918;55.706;37.816;2023-07-28T02:17:08;58.14;48.82;69.17;;
74470;Laerm;62918;55.706;37.816;2023-07-28T02:17:39;61.17;54.14;75.53;;
74470;Laerm;62918;55.706;37.816;2023-07-28T02:18:09;60.68;54.67;67.34;;
74470;Laerm;62918;55.706;37.816;2023-07-28T02:18:40;52.36;48.64;57.00;;
74470;Laerm;62918;55.706;37.816;2023-07-28T02:19:10;54.36;49.42;60.05;;
74470;Laerm;62918;55.706;37.816;2023-07-28T02:19:41;65.15;57.93;71.93;;
74470;Laerm;62918;55.706;37.816;2023-07-28T02:20:12;64.57;48.66;78.04;;
74470;Laerm;62918;55.706;37.816;2023-07-28T02:20:48;52.90;47.48;65.89;;
74470;Laerm;62918;55.706;37.816;2023-07-28T02:21:19;58.17;50.01;65.57;;
74470;Laerm;62918;55.706;37.816;2023-07-28T02:21:50;54.86;49.90;60.55;;
74470;Laerm;62918;55.706;37.816;2023-07-28T02:22:20;61.03;52.67;66.67;;
74470;Laerm;62918;55.706;37.816;2023-07-28T02:22:51;53.61;48.21;58.57;;
74470;Laerm;62918;55.706;37.816;2023-07-28T02:23:21;57.29;48.97;67.65;;
74470;Laerm;62918;55.706;37.816;2023-07-28T02:23:52;61.81;55.43;67.83;;
74470;Laerm;62918;55.706;37.816;2023-07-28T02:24:22;59.72;54.84;64.24;;
74470;Laerm;62918;55.706;37.816;2023-07-28T02:24:53;59.12;52.83;65.52;;
74470;Laerm;62918;55.706;37.816;2023-07-28T02:25:24;63.32;58.33;68.91;;
74470;Laerm;62918;55.706;37.816;2023-07-28T02:25:54;61.70;53.08;68.88;;
74470;Laerm;62918;55.706;37.816;2023-07-28T02:26:25;58.35;50.76;62.30;;
74470;Laerm;62918;55.706;37.816;2023-07-28T02:26:55;56.33;51.28;62.13;;
74470;Laerm;62918;55.706;37.816;2023-07-28T02:27:26;62.28;51.39;68.74;;
74470;Laerm;62918;55.706;37.816;2023-07-28T02:27:57;55.61;50.38;63.92;;
74470;Laerm;62918;55.706;37.816;2023-07-28T02:28:27;58.01;51.35;74.43;;
74470;Laerm;62918;55.706;37.816;2023-07-28T02:28:58;54.54;49.76;60.01;;
74470;Laerm;62918;55.706;37.816;2023-07-28T02:29:29;58.72;52.96;64.92;;
74470;Laerm;62918;55.706;37.816;2023-07-28T02:29:59;62.44;54.77;67.30;;
74470;Laerm;62918;55.706;37.816;2023-07-28T02:30:30;56.72;52.41;61.94;;
74470;Laerm;62918;55.706;37.816;2023-07-28T02:31:01;62.24;48.49;70.50;;
74470;Laerm;62918;55.706;37.816;2023-07-28T02:31:32;57.63;50.31;65.63;;
74470;Laerm;62918;55.706;37.816;2023-07-28T02:32:02;54.56;47.49;60.59;;
74470;Laerm;62918;55.706;37.816;2023-07-28T02:32:33;49.64;47.22;52.83;;
74470;Laerm;62918;55.706;37.816;2023-07-28T02:33:05;53.24;48.86;58.50;;
74470;Laerm;62918;55.706;37.816;2023-07-28T02:33:35;53.68;48.91;58.75;;
74470;Laerm;62918;55.706;37.816;2023-07-28T02:34:07;60.37;51.39;66.25;;
74470;Laerm;62918;55.706;37.816;2023-07-28T02:34:37;58.34;51.01;67.49;;
74470;Laerm;62918;55.706;37.816;2023-07-28T02:35:08;61.48;52.65;69.54;;
74470;Laerm;62918;55.706;37.816;2023-07-28T02:35:40;59.70;53.64;68.21;;
74470;Laerm;62918;55.706;37.816;2023-07-28T02:36:11;61.93;56.51;68.54;;
74470;Laerm;62918;55.706;37.816;2023-07-28T02:36:41;58.63;54.75;66.21;;
74470;Laerm;62918;55.706;37.816;2023-07-28T02:37:14;56.52;52.77;61.32;;
74470;Laerm;62918;55.706;37.816;2023-07-28T02:37:44;60.66;54.44;65.87;;
74470;Laerm;62918;55.706;37.816;2023-07-28T02:38:15;59.77;48.98;65.51;;
74470;Laerm;62918;55.706;37.816;2023-07-28T02:38:45;51.73;47.84;57.37;;
74470;Laerm;62918;55.706;37.816;2023-07-28T02:39:16;60.58;46.77;66.66;;
74470;Laerm;62918;55.706;37.816;2023-07-28T02:39:46;53.37;49.06;60.11;;
74470;Laerm;62918;55.706;37.816;2023-07-28T02:40:17;55.83;48.66;63.24;;
74470;Laerm;62918;55.706;37.816;2023-07-28T02:40:47;54.23;48.56;69.65;;
74470;Laerm;62918;55.706;37.816;2023-07-28T02:41:18;52.12;47.92;55.79;;
74470;Laerm;62918;55.706;37.816;2023-07-28T02:41:49;49.96;47.06;54.22;;
74470;Laerm;62918;55.706;37.816;2023-07-28T02:42:19;53.39;48.06;58.28;;
74470;Laerm;62918;55.706;37.816;2023-07-28T02:43:05;60.04;50.05;67.31;;
74470;Laerm;62918;55.706;37.816;2023-07-28T02:43:39;61.39;55.74;66.54;;
74470;Laerm;62918;55.706;37.816;2023-07-28T02:44:32;58.69;52.04;65.09;;
74470;Laerm;62918;55.706;37.816;2023-07-28T02:45:06;55.12;50.70;58.19;;
74470;Laerm;62918;55.706;37.816;2023-07-28T02:45:37;57.77;51.38;63.05;;
74470;Laerm;62918;55.706;37.816;2023-07-28T02:46:07;60.76;56.18;65.84;;
74470;Laerm;62918;55.706;37.816;2023-07-28T02:46:51;63.73;57.19;70.30;;
74470;Laerm;62918;55.706;37.816;2023-07-28T02:47:22;60.51;56.72;64.80;;
74470;Laerm;62918;55.706;37.816;2023-07-28T02:47:53;62.15;56.30;72.31;;
74470;Laerm;62918;55.706;37.816;2023-07-28T02:48:24;64.33;53.23;73.67;;
74470;Laerm;62918;55.706;37.816;2023-07-28T02:48:57;65.58;55.45;71.43;;
74470;Laerm;62918;55.706;37.816;2023-07-28T02:49:28;63.52;55.26;68.24;;
74470;Laerm;62918;55.706;37.816;2023-07-28T02:49:59;57.15;52.72;68.17;;
74470;Laerm;62918;55.706;37.816;2023-07-28T02:50:32;55.26;49.79;60.28;;
74470;Laerm;62918;55.706;37.816;2023-07-28T02:51:03;62.64;55.22;72.39;;
74470;Laerm;62918;55.706;37.816;2023-07-28T02:51:33;60.21;54.83;65.59;;
74470;Laerm;62918;55.706;37.816;2023-07-28T02:52:05;63.98;56.56;70.51;;
74470;Laerm;62918;55.706;37.816;2023-07-28T02:52:41;57.65;51.21;64.88;;
74470;Laerm;62918;55.706;37.816;2023-07-28T02:53:14;58.25;53.39;65.86;;
74470;Laerm;62918;55.706;37.816;2023-07-28T02:53:45;56.70;53.47;62.99;;
74470;Laerm;62918;55.706;37.816;2023-07-28T02:54:15;58.79;53.14;63.52;;
74470;Laerm;62918;55.706;37.816;2023-07-28T02:54:49;56.70;51.92;61.54;;
74470;Laerm;62918;55.706;37.816;2023-07-28T02:55:20;55.53;51.77;60.84;;
74470;Laerm;62918;55.706;37.816;2023-07-28T02:55:54;59.36;50.38;65.10;;
74470;Laerm;62918;55.706;37.816;2023-07-28T02:56:24;57.57;51.61;61.58;;